Terminal Aerodrome Forecast
Issued by NWS Sterling, VA

Current Version | Previous Version | Graphics & Text | Print | Product List | Glossary On
Versions: 1 2 3 4 5 6 7 8 9 10 11 12 13 14 15 16 17 18
000
FTUS41 KLWX 052326
TAFMRB
TAF
KMRB 052326Z 0600/0624 VRB04KT P6SM BKN090
     FM061000 35006KT P6SM BKN200
     FM061800 09008KT P6SM BKN050=

USA.gov is the U.S. government's official web portal to all federal, state and local government web resources and services.